sensor_id;sensor_type;location;lat;lon;timestamp;P1;durP1;ratioP1;P2;durP2;ratioP2
61206;SDS011;47070;49.212;8.084;2022-08-11T00:01:47;4.38;;;1.80;;
61206;SDS011;47070;49.212;8.084;2022-08-11T00:05:50;2.75;;;1.80;;
61206;SDS011;47070;49.212;8.084;2022-08-11T00:09:53;2.25;;;1.70;;
61206;SDS011;47070;49.212;8.084;2022-08-11T00:13:55;2.08;;;1.55;;
61206;SDS011;47070;49.212;8.084;2022-08-11T00:17:57;4.40;;;1.83;;
61206;SDS011;47070;49.212;8.084;2022-08-11T00:22:00;1.70;;;1.60;;
61206;SDS011;47070;49.212;8.084;2022-08-11T00:26:05;2.28;;;2.03;;
61206;SDS011;47070;49.212;8.084;2022-08-11T00:30:07;3.67;;;1.83;;
61206;SDS011;47070;49.212;8.084;2022-08-11T00:34:11;2.42;;;1.75;;
61206;SDS011;47070;49.212;8.084;2022-08-11T00:38:15;3.95;;;1.50;;
61206;SDS011;47070;49.212;8.084;2022-08-11T00:46:32;4.72;;;1.70;;
61206;SDS011;47070;49.212;8.084;2022-08-11T00:50:46;1.70;;;1.60;;
61206;SDS011;47070;49.212;8.084;2022-08-11T01:03:18;2.75;;;1.60;;
61206;SDS011;47070;49.212;8.084;2022-08-11T01:12:13;1.52;;;1.38;;
61206;SDS011;47070;49.212;8.084;2022-08-11T01:20:58;1.73;;;1.63;;
61206;SDS011;47070;49.212;8.084;2022-08-11T01:29:51;2.33;;;1.52;;
61206;SDS011;47070;49.212;8.084;2022-08-11T01:34:38;2.53;;;1.38;;
61206;SDS011;47070;49.212;8.084;2022-08-11T01:52:16;2.20;;;2.00;;
61206;SDS011;47070;49.212;8.084;2022-08-11T02:00:49;7.00;;;2.35;;
61206;SDS011;47070;49.212;8.084;2022-08-11T02:05:16;2.22;;;1.85;;
61206;SDS011;47070;49.212;8.084;2022-08-11T02:10:02;7.57;;;1.85;;
61206;SDS011;47070;49.212;8.084;2022-08-11T02:19:21;3.28;;;1.80;;
61206;SDS011;47070;49.212;8.084;2022-08-11T02:23:57;1.70;;;1.60;;
61206;SDS011;47070;49.212;8.084;2022-08-11T02:28:06;3.40;;;1.83;;
61206;SDS011;47070;49.212;8.084;2022-08-11T02:32:28;3.90;;;1.90;;
61206;SDS011;47070;49.212;8.084;2022-08-11T02:36:57;3.35;;;1.80;;
61206;SDS011;47070;49.212;8.084;2022-08-11T02:41:18;2.58;;;2.00;;
61206;SDS011;47070;49.212;8.084;2022-08-11T02:46:00;1.75;;;1.65;;
61206;SDS011;47070;49.212;8.084;2022-08-11T02:50:18;3.28;;;1.88;;
61206;SDS011;47070;49.212;8.084;2022-08-11T02:54:25;1.80;;;1.70;;
61206;SDS011;47070;49.212;8.084;2022-08-11T03:06:52;3.05;;;1.90;;
61206;SDS011;47070;49.212;8.084;2022-08-11T03:11:06;3.03;;;2.47;;
61206;SDS011;47070;49.212;8.084;2022-08-11T03:20:20;2.03;;;1.83;;
61206;SDS011;47070;49.212;8.084;2022-08-11T03:29:03;2.38;;;1.98;;
61206;SDS011;47070;49.212;8.084;2022-08-11T03:33:28;2.00;;;1.90;;
61206;SDS011;47070;49.212;8.084;2022-08-11T03:37:54;2.15;;;1.98;;
61206;SDS011;47070;49.212;8.084;2022-08-11T03:51:12;2.30;;;2.20;;
61206;SDS011;47070;49.212;8.084;2022-08-11T04:04:23;3.65;;;2.38;;
61206;SDS011;47070;49.212;8.084;2022-08-11T04:26:51;3.55;;;2.65;;
61206;SDS011;47070;49.212;8.084;2022-08-11T04:31:18;7.30;;;2.22;;
61206;SDS011;47070;49.212;8.084;2022-08-11T04:36:09;2.50;;;2.15;;
61206;SDS011;47070;49.212;8.084;2022-08-11T04:59:47;2.60;;;2.10;;
61206;SDS011;47070;49.212;8.084;2022-08-11T05:04:15;3.35;;;2.47;;
61206;SDS011;47070;49.212;8.084;2022-08-11T05:13:00;2.55;;;2.30;;
61206;SDS011;47070;49.212;8.084;2022-08-11T05:17:22;2.53;;;2.30;;
61206;SDS011;47070;49.212;8.084;2022-08-11T05:21:57;3.00;;;2.40;;
61206;SDS011;47070;49.212;8.084;2022-08-11T05:26:16;3.65;;;2.92;;
61206;SDS011;47070;49.212;8.084;2022-08-11T05:30:37;3.13;;;2.53;;
61206;SDS011;47070;49.212;8.084;2022-08-11T05:35:01;3.97;;;3.67;;
61206;SDS011;47070;49.212;8.084;2022-08-11T05:39:13;17.30;;;3.35;;
61206;SDS011;47070;49.212;8.084;2022-08-11T05:43:38;3.38;;;3.10;;
61206;SDS011;47070;49.212;8.084;2022-08-11T05:47:59;8.93;;;8.30;;
61206;SDS011;47070;49.212;8.084;2022-08-11T05:52:20;13.15;;;12.20;;
61206;SDS011;47070;49.212;8.084;2022-08-11T05:56:43;8.88;;;8.27;;
61206;SDS011;47070;49.212;8.084;2022-08-11T06:00:49;9.55;;;8.98;;
61206;SDS011;47070;49.212;8.084;2022-08-11T06:04:54;32.58;;;13.93;;
61206;SDS011;47070;49.212;8.084;2022-08-11T06:08:56;13.13;;;12.23;;
61206;SDS011;47070;49.212;8.084;2022-08-11T06:12:59;7.60;;;7.30;;
61206;SDS011;47070;49.212;8.084;2022-08-11T06:17:02;3.95;;;3.67;;
61206;SDS011;47070;49.212;8.084;2022-08-11T06:21:07;4.20;;;3.90;;
61206;SDS011;47070;49.212;8.084;2022-08-11T06:25:10;3.38;;;3.08;;
61206;SDS011;47070;49.212;8.084;2022-08-11T06:29:11;5.35;;;3.17;;
61206;SDS011;47070;49.212;8.084;2022-08-11T06:41:58;2.80;;;2.60;;
61206;SDS011;47070;49.212;8.084;2022-08-11T06:46:07;2.88;;;2.50;;
61206;SDS011;47070;49.212;8.084;2022-08-11T06:50:10;2.45;;;2.22;;
61206;SDS011;47070;49.212;8.084;2022-08-11T06:54:38;3.10;;;2.90;;
61206;SDS011;47070;49.212;8.084;2022-08-11T06:58:43;3.28;;;2.15;;
61206;SDS011;47070;49.212;8.084;2022-08-11T07:03:07;3.08;;;2.78;;
61206;SDS011;47070;49.212;8.084;2022-08-11T07:07:27;2.22;;;1.90;;
61206;SDS011;47070;49.212;8.084;2022-08-11T07:12:13;2.15;;;2.00;;
61206;SDS011;47070;49.212;8.084;2022-08-11T07:16:57;1.88;;;1.75;;
61206;SDS011;47070;49.212;8.084;2022-08-11T07:21:06;1.98;;;1.77;;
61206;SDS011;47070;49.212;8.084;2022-08-11T07:25:28;4.55;;;2.30;;
61206;SDS011;47070;49.212;8.084;2022-08-11T07:29:51;2.38;;;2.25;;
61206;SDS011;47070;49.212;8.084;2022-08-11T07:33:56;2.22;;;2.00;;
61206;SDS011;47070;49.212;8.084;2022-08-11T07:38:06;3.75;;;2.20;;
61206;SDS011;47070;49.212;8.084;2022-08-11T07:42:12;2.95;;;2.10;;
61206;SDS011;47070;49.212;8.084;2022-08-11T07:46:16;6.20;;;2.00;;
61206;SDS011;47070;49.212;8.084;2022-08-11T07:50:39;2.17;;;1.75;;
61206;SDS011;47070;49.212;8.084;2022-08-11T07:55:00;1.98;;;1.88;;
61206;SDS011;47070;49.212;8.084;2022-08-11T07:59:21;3.50;;;1.90;;
61206;SDS011;47070;49.212;8.084;2022-08-11T08:03:42;1.73;;;1.63;;
61206;SDS011;47070;49.212;8.084;2022-08-11T08:08:02;2.10;;;1.90;;
61206;SDS011;47070;49.212;8.084;2022-08-11T08:12:23;1.55;;;1.45;;
61206;SDS011;47070;49.212;8.084;2022-08-11T08:16:43;2.13;;;1.95;;
61206;SDS011;47070;49.212;8.084;2022-08-11T08:21:02;1.23;;;1.20;;
61206;SDS011;47070;49.212;8.084;2022-08-11T08:25:11;3.05;;;2.00;;
61206;SDS011;47070;49.212;8.084;2022-08-11T08:29:13;2.05;;;1.58;;
61206;SDS011;47070;49.212;8.084;2022-08-11T08:33:49;1.80;;;1.70;;
61206;SDS011;47070;49.212;8.084;2022-08-11T08:37:50;1.30;;;1.20;;
61206;SDS011;47070;49.212;8.084;2022-08-11T08:41:52;2.75;;;2.17;;
61206;SDS011;47070;49.212;8.084;2022-08-11T08:45:54;2.17;;;1.98;;
61206;SDS011;47070;49.212;8.084;2022-08-11T08:50:31;5.80;;;1.83;;
61206;SDS011;47070;49.212;8.084;2022-08-11T08:54:47;1.70;;;1.60;;
61206;SDS011;47070;49.212;8.084;2022-08-11T08:58:53;1.85;;;1.50;;
61206;SDS011;47070;49.212;8.084;2022-08-11T09:02:55;5.68;;;1.70;;
61206;SDS011;47070;49.212;8.084;2022-08-11T09:06:58;2.90;;;1.90;;
61206;SDS011;47070;49.212;8.084;2022-08-11T09:11:06;2.00;;;1.77;;
61206;SDS011;47070;49.212;8.084;2022-08-11T09:15:25;2.67;;;1.77;;
61206;SDS011;47070;49.212;8.084;2022-08-11T09:19:27;1.40;;;1.30;;
61206;SDS011;47070;49.212;8.084;2022-08-11T09:23:27;1.95;;;1.20;;
61206;SDS011;47070;49.212;8.084;2022-08-11T09:27:47;1.60;;;1.50;;
61206;SDS011;47070;49.212;8.084;2022-08-11T09:31:48;2.35;;;1.63;;
61206;SDS011;47070;49.212;8.084;2022-08-11T09:35:51;1.55;;;1.45;;
61206;SDS011;47070;49.212;8.084;2022-08-11T09:39:52;1.42;;;1.33;;
61206;SDS011;47070;49.212;8.084;2022-08-11T09:44:21;6.07;;;1.83;;
61206;SDS011;47070;49.212;8.084;2022-08-11T09:48:43;1.65;;;1.55;;
61206;SDS011;47070;49.212;8.084;2022-08-11T09:52:45;1.65;;;1.55;;
61206;SDS011;47070;49.212;8.084;2022-08-11T09:56:47;1.33;;;1.23;;
61206;SDS011;47070;49.212;8.084;2022-08-11T10:01:09;1.60;;;1.40;;
61206;SDS011;47070;49.212;8.084;2022-08-11T10:05:25;1.55;;;1.45;;
61206;SDS011;47070;49.212;8.084;2022-08-11T10:10:03;1.58;;;1.48;;
61206;SDS011;47070;49.212;8.084;2022-08-11T10:14:05;1.70;;;1.30;;
61206;SDS011;47070;49.212;8.084;2022-08-11T10:18:32;2.55;;;1.65;;
61206;SDS011;47070;49.212;8.084;2022-08-11T10:22:41;1.50;;;1.40;;
61206;SDS011;47070;49.212;8.084;2022-08-11T10:27:00;1.60;;;1.50;;
61206;SDS011;47070;49.212;8.084;2022-08-11T10:31:05;1.50;;;1.40;;
61206;SDS011;47070;49.212;8.084;2022-08-11T10:35:25;1.63;;;1.52;;
61206;SDS011;47070;49.212;8.084;2022-08-11T10:39:28;2.67;;;1.60;;
61206;SDS011;47070;49.212;8.084;2022-08-11T10:43:29;2.22;;;1.50;;
61206;SDS011;47070;49.212;8.084;2022-08-11T10:47:29;2.78;;;1.33;;
61206;SDS011;47070;49.212;8.084;2022-08-11T10:51:38;2.08;;;1.83;;
61206;SDS011;47070;49.212;8.084;2022-08-11T10:55:57;2.47;;;2.00;;
61206;SDS011;47070;49.212;8.084;2022-08-11T11:00:18;5.10;;;1.65;;
61206;SDS011;47070;49.212;8.084;2022-08-11T11:04:23;3.38;;;2.08;;
61206;SDS011;47070;49.212;8.084;2022-08-11T11:08:46;1.77;;;1.40;;
61206;SDS011;47070;49.212;8.084;2022-08-11T11:12:54;10.95;;;1.83;;
61206;SDS011;47070;49.212;8.084;2022-08-11T11:17:19;1.80;;;1.70;;
61206;SDS011;47070;49.212;8.084;2022-08-11T11:21:48;5.80;;;1.67;;
61206;SDS011;47070;49.212;8.084;2022-08-11T11:30:12;2.40;;;1.23;;
61206;SDS011;47070;49.212;8.084;2022-08-11T11:38:36;5.00;;;1.27;;
61206;SDS011;47070;49.212;8.084;2022-08-11T11:42:37;1.27;;;1.17;;
61206;SDS011;47070;49.212;8.084;2022-08-11T11:46:39;2.10;;;1.40;;
61206;SDS011;47070;49.212;8.084;2022-08-11T11:50:41;1.38;;;1.27;;
61206;SDS011;47070;49.212;8.084;2022-08-11T11:54:43;1.70;;;1.60;;
61206;SDS011;47070;49.212;8.084;2022-08-11T11:58:45;2.45;;;1.30;;
61206;SDS011;47070;49.212;8.084;2022-08-11T12:03:06;1.20;;;1.10;;
61206;SDS011;47070;49.212;8.084;2022-08-11T12:07:09;4.32;;;1.58;;
61206;SDS011;47070;49.212;8.084;2022-08-11T12:11:29;7.43;;;1.42;;
61206;SDS011;47070;49.212;8.084;2022-08-11T12:15:49;6.30;;;1.65;;
61206;SDS011;47070;49.212;8.084;2022-08-11T12:19:52;2.55;;;1.10;;
61206;SDS011;47070;49.212;8.084;2022-08-11T12:23:53;1.50;;;1.10;;
61206;SDS011;47070;49.212;8.084;2022-08-11T12:28:14;2.53;;;1.42;;
61206;SDS011;47070;49.212;8.084;2022-08-11T12:32:15;1.42;;;1.33;;
61206;SDS011;47070;49.212;8.084;2022-08-11T12:36:17;1.58;;;1.48;;
61206;SDS011;47070;49.212;8.084;2022-08-11T12:40:21;0.98;;;0.90;;
61206;SDS011;47070;49.212;8.084;2022-08-11T12:44:43;1.42;;;1.40;;
61206;SDS011;47070;49.212;8.084;2022-08-11T12:49:12;1.42;;;1.30;;
61206;SDS011;47070;49.212;8.084;2022-08-11T12:53:34;1.10;;;1.00;;
61206;SDS011;47070;49.212;8.084;2022-08-11T12:57:44;6.45;;;1.10;;
61206;SDS011;47070;49.212;8.084;2022-08-11T13:02:04;1.00;;;1.00;;
61206;SDS011;47070;49.212;8.084;2022-08-11T13:06:23;2.38;;;1.00;;
61206;SDS011;47070;49.212;8.084;2022-08-11T13:10:24;1.13;;;1.02;;
61206;SDS011;47070;49.212;8.084;2022-08-11T13:14:45;2.67;;;1.40;;
61206;SDS011;47070;49.212;8.084;2022-08-11T13:18:45;2.95;;;1.25;;
61206;SDS011;47070;49.212;8.084;2022-08-11T13:22:53;2.80;;;1.00;;
61206;SDS011;47070;49.212;8.084;2022-08-11T13:26:56;2.35;;;1.15;;
61206;SDS011;47070;49.212;8.084;2022-08-11T13:30:57;1.00;;;0.90;;
61206;SDS011;47070;49.212;8.084;2022-08-11T13:35:11;1.52;;;1.38;;
61206;SDS011;47070;49.212;8.084;2022-08-11T13:39:16;3.67;;;1.48;;
61206;SDS011;47070;49.212;8.084;2022-08-11T13:43:18;1.15;;;0.88;;
61206;SDS011;47070;49.212;8.084;2022-08-11T13:47:20;1.50;;;1.10;;
61206;SDS011;47070;49.212;8.084;2022-08-11T13:51:24;1.58;;;0.95;;
61206;SDS011;47070;49.212;8.084;2022-08-11T13:55:32;5.07;;;1.30;;
61206;SDS011;47070;49.212;8.084;2022-08-11T13:59:33;4.10;;;1.42;;
61206;SDS011;47070;49.212;8.084;2022-08-11T14:03:34;2.47;;;1.17;;
61206;SDS011;47070;49.212;8.084;2022-08-11T14:07:40;2.65;;;1.35;;
61206;SDS011;47070;49.212;8.084;2022-08-11T14:11:46;1.77;;;1.10;;
61206;SDS011;47070;49.212;8.084;2022-08-11T14:16:07;1.98;;;1.05;;
61206;SDS011;47070;49.212;8.084;2022-08-11T14:20:11;3.35;;;1.00;;
61206;SDS011;47070;49.212;8.084;2022-08-11T14:24:15;1.45;;;1.35;;
61206;SDS011;47070;49.212;8.084;2022-08-11T14:28:17;1.63;;;1.00;;
61206;SDS011;47070;49.212;8.084;2022-08-11T14:32:17;1.48;;;1.13;;
61206;SDS011;47070;49.212;8.084;2022-08-11T14:36:20;2.95;;;1.20;;
61206;SDS011;47070;49.212;8.084;2022-08-11T14:40:23;1.02;;;0.93;;
61206;SDS011;47070;49.212;8.084;2022-08-11T14:44:47;2.67;;;1.00;;
61206;SDS011;47070;49.212;8.084;2022-08-11T14:49:02;1.88;;;1.63;;
61206;SDS011;47070;49.212;8.084;2022-08-11T14:53:04;4.50;;;1.33;;
61206;SDS011;47070;49.212;8.084;2022-08-11T14:57:08;1.30;;;1.20;;
61206;SDS011;47070;49.212;8.084;2022-08-11T15:01:08;1.80;;;1.15;;
61206;SDS011;47070;49.212;8.084;2022-08-11T15:05:29;1.10;;;1.08;;
61206;SDS011;47070;49.212;8.084;2022-08-11T15:09:31;1.85;;;1.02;;
61206;SDS011;47070;49.212;8.084;2022-08-11T15:13:32;2.25;;;1.38;;
61206;SDS011;47070;49.212;8.084;2022-08-11T15:17:33;1.00;;;0.98;;
61206;SDS011;47070;49.212;8.084;2022-08-11T15:21:35;1.83;;;1.20;;
61206;SDS011;47070;49.212;8.084;2022-08-11T15:25:56;1.40;;;1.30;;
61206;SDS011;47070;49.212;8.084;2022-08-11T15:30:00;3.53;;;1.40;;
61206;SDS011;47070;49.212;8.084;2022-08-11T15:34:23;4.47;;;1.23;;
61206;SDS011;47070;49.212;8.084;2022-08-11T15:39:05;1.92;;;1.33;;
61206;SDS011;47070;49.212;8.084;2022-08-11T15:43:18;3.47;;;1.13;;
61206;SDS011;47070;49.212;8.084;2022-08-11T15:47:47;2.78;;;1.33;;
61206;SDS011;47070;49.212;8.084;2022-08-11T15:52:02;2.97;;;1.33;;
61206;SDS011;47070;49.212;8.084;2022-08-11T15:56:08;1.38;;;1.27;;
61206;SDS011;47070;49.212;8.084;2022-08-11T16:00:10;2.67;;;1.00;;
61206;SDS011;47070;49.212;8.084;2022-08-11T16:04:44;7.45;;;1.50;;
61206;SDS011;47070;49.212;8.084;2022-08-11T16:08:46;2.00;;;1.00;;
61206;SDS011;47070;49.212;8.084;2022-08-11T16:12:50;1.35;;;1.20;;
61206;SDS011;47070;49.212;8.084;2022-08-11T16:17:05;1.38;;;0.90;;
61206;SDS011;47070;49.212;8.084;2022-08-11T16:21:10;4.70;;;1.33;;
61206;SDS011;47070;49.212;8.084;2022-08-11T16:25:15;1.05;;;1.00;;
61206;SDS011;47070;49.212;8.084;2022-08-11T16:29:21;1.00;;;0.90;;
61206;SDS011;47070;49.212;8.084;2022-08-11T16:33:24;1.17;;;1.02;;
61206;SDS011;47070;49.212;8.084;2022-08-11T16:37:25;2.97;;;1.20;;
61206;SDS011;47070;49.212;8.084;2022-08-11T16:41:46;1.60;;;1.00;;
61206;SDS011;47070;49.212;8.084;2022-08-11T16:46:07;3.85;;;1.30;;
61206;SDS011;47070;49.212;8.084;2022-08-11T16:50:28;2.13;;;1.30;;
61206;SDS011;47070;49.212;8.084;2022-08-11T16:54:30;0.98;;;0.98;;
61206;SDS011;47070;49.212;8.084;2022-08-11T16:58:33;1.20;;;1.08;;
61206;SDS011;47070;49.212;8.084;2022-08-11T17:02:54;1.25;;;0.85;;
61206;SDS011;47070;49.212;8.084;2022-08-11T17:07:16;1.15;;;1.15;;
61206;SDS011;47070;49.212;8.084;2022-08-11T17:11:39;1.38;;;0.68;;
61206;SDS011;47070;49.212;8.084;2022-08-11T17:16:03;2.03;;;1.02;;
61206;SDS011;47070;49.212;8.084;2022-08-11T17:20:06;1.80;;;0.88;;
61206;SDS011;47070;49.212;8.084;2022-08-11T17:24:11;4.63;;;1.33;;
61206;SDS011;47070;49.212;8.084;2022-08-11T17:28:13;1.27;;;0.95;;
61206;SDS011;47070;49.212;8.084;2022-08-11T17:32:29;1.95;;;1.30;;
61206;SDS011;47070;49.212;8.084;2022-08-11T17:36:53;0.82;;;0.82;;
61206;SDS011;47070;49.212;8.084;2022-08-11T17:40:56;1.80;;;1.23;;
61206;SDS011;47070;49.212;8.084;2022-08-11T17:45:17;4.93;;;1.33;;
61206;SDS011;47070;49.212;8.084;2022-08-11T17:49:39;1.35;;;1.10;;
61206;SDS011;47070;49.212;8.084;2022-08-11T17:53:41;0.90;;;0.90;;
61206;SDS011;47070;49.212;8.084;2022-08-11T17:58:02;2.40;;;1.52;;
61206;SDS011;47070;49.212;8.084;2022-08-11T18:02:23;1.38;;;1.20;;
61206;SDS011;47070;49.212;8.084;2022-08-11T18:06:45;1.20;;;1.10;;
61206;SDS011;47070;49.212;8.084;2022-08-11T18:10:46;2.22;;;1.40;;
61206;SDS011;47070;49.212;8.084;2022-08-11T18:15:06;2.53;;;1.42;;
61206;SDS011;47070;49.212;8.084;2022-08-11T18:19:26;1.83;;;1.00;;
61206;SDS011;47070;49.212;8.084;2022-08-11T18:23:45;4.15;;;1.38;;
61206;SDS011;47070;49.212;8.084;2022-08-11T18:28:07;1.27;;;1.20;;
61206;SDS011;47070;49.212;8.084;2022-08-11T18:32:28;4.93;;;1.55;;
61206;SDS011;47070;49.212;8.084;2022-08-11T18:36:54;3.85;;;1.30;;
61206;SDS011;47070;49.212;8.084;2022-08-11T18:41:17;3.15;;;1.30;;
61206;SDS011;47070;49.212;8.084;2022-08-11T18:45:38;1.30;;;1.20;;
61206;SDS011;47070;49.212;8.084;2022-08-11T18:49:59;1.10;;;1.10;;
61206;SDS011;47070;49.212;8.084;2022-08-11T18:54:20;2.15;;;1.30;;
61206;SDS011;47070;49.212;8.084;2022-08-11T18:58:42;3.28;;;1.27;;
61206;SDS011;47070;49.212;8.084;2022-08-11T19:03:04;2.42;;;1.40;;
61206;SDS011;47070;49.212;8.084;2022-08-11T19:07:24;1.45;;;1.30;;
61206;SDS011;47070;49.212;8.084;2022-08-11T19:11:45;1.40;;;1.27;;
61206;SDS011;47070;49.212;8.084;2022-08-11T19:16:05;1.63;;;1.40;;
61206;SDS011;47070;49.212;8.084;2022-08-11T19:20:27;6.78;;;1.80;;
61206;SDS011;47070;49.212;8.084;2022-08-11T19:24:48;1.40;;;1.30;;
61206;SDS011;47070;49.212;8.084;2022-08-11T19:29:09;1.20;;;1.10;;
61206;SDS011;47070;49.212;8.084;2022-08-11T19:33:32;2.65;;;1.20;;
61206;SDS011;47070;49.212;8.084;2022-08-11T19:37:51;3.22;;;1.50;;
61206;SDS011;47070;49.212;8.084;2022-08-11T19:42:12;2.92;;;1.30;;
61206;SDS011;47070;49.212;8.084;2022-08-11T19:46:33;3.30;;;1.50;;
61206;SDS011;47070;49.212;8.084;2022-08-11T19:50:55;3.83;;;1.50;;
61206;SDS011;47070;49.212;8.084;2022-08-11T19:55:15;3.58;;;1.42;;
61206;SDS011;47070;49.212;8.084;2022-08-11T19:59:35;1.77;;;1.42;;
61206;SDS011;47070;49.212;8.084;2022-08-11T20:03:56;2.58;;;1.35;;
61206;SDS011;47070;49.212;8.084;2022-08-11T20:08:16;1.92;;;1.20;;
61206;SDS011;47070;49.212;8.084;2022-08-11T20:12:37;1.60;;;1.40;;
61206;SDS011;47070;49.212;8.084;2022-08-11T20:16:57;1.42;;;1.33;;
61206;SDS011;47070;49.212;8.084;2022-08-11T20:21:17;2.90;;;1.50;;
61206;SDS011;47070;49.212;8.084;2022-08-11T20:25:38;1.50;;;1.40;;
61206;SDS011;47070;49.212;8.084;2022-08-11T20:29:57;2.50;;;1.40;;
61206;SDS011;47070;49.212;8.084;2022-08-11T20:34:19;5.45;;;1.40;;
61206;SDS011;47070;49.212;8.084;2022-08-11T20:38:39;1.67;;;1.45;;
61206;SDS011;47070;49.212;8.084;2022-08-11T20:42:58;1.90;;;1.50;;
61206;SDS011;47070;49.212;8.084;2022-08-11T20:47:18;1.85;;;1.40;;
61206;SDS011;47070;49.212;8.084;2022-08-11T20:51:39;1.40;;;1.30;;
61206;SDS011;47070;49.212;8.084;2022-08-11T20:56:00;1.60;;;1.50;;
61206;SDS011;47070;49.212;8.084;2022-08-11T21:00:19;2.65;;;1.25;;
61206;SDS011;47070;49.212;8.084;2022-08-11T21:04:39;3.05;;;1.67;;
61206;SDS011;47070;49.212;8.084;2022-08-11T21:08:59;2.08;;;1.63;;
61206;SDS011;47070;49.212;8.084;2022-08-11T21:13:23;1.65;;;1.52;;
61206;SDS011;47070;49.212;8.084;2022-08-11T21:17:45;1.30;;;1.20;;
61206;SDS011;47070;49.212;8.084;2022-08-11T21:22:06;2.05;;;1.20;;
61206;SDS011;47070;49.212;8.084;2022-08-11T21:26:30;1.50;;;1.40;;
61206;SDS011;47070;49.212;8.084;2022-08-11T21:30:50;1.20;;;1.10;;
61206;SDS011;47070;49.212;8.084;2022-08-11T21:35:10;1.98;;;1.60;;
61206;SDS011;47070;49.212;8.084;2022-08-11T21:39:30;4.35;;;1.60;;
61206;SDS011;47070;49.212;8.084;2022-08-11T21:43:52;1.70;;;1.60;;
61206;SDS011;47070;49.212;8.084;2022-08-11T21:48:13;4.22;;;1.88;;
61206;SDS011;47070;49.212;8.084;2022-08-11T21:52:36;2.25;;;1.42;;
61206;SDS011;47070;49.212;8.084;2022-08-11T21:56:55;3.38;;;1.67;;
61206;SDS011;47070;49.212;8.084;2022-08-11T22:01:15;1.52;;;1.42;;
61206;SDS011;47070;49.212;8.084;2022-08-11T22:05:35;1.70;;;1.60;;
61206;SDS011;47070;49.212;8.084;2022-08-11T22:09:55;1.67;;;1.40;;
61206;SDS011;47070;49.212;8.084;2022-08-11T22:14:15;1.95;;;1.85;;
61206;SDS011;47070;49.212;8.084;2022-08-11T22:18:34;1.70;;;1.60;;
61206;SDS011;47070;49.212;8.084;2022-08-11T22:22:55;1.75;;;1.65;;
61206;SDS011;47070;49.212;8.084;2022-08-11T22:27:15;2.58;;;2.38;;
61206;SDS011;47070;49.212;8.084;2022-08-11T22:31:35;1.83;;;1.60;;
61206;SDS011;47070;49.212;8.084;2022-08-11T22:35:55;1.85;;;1.50;;
61206;SDS011;47070;49.212;8.084;2022-08-11T22:40:15;1.80;;;1.60;;
61206;SDS011;47070;49.212;8.084;2022-08-11T22:44:34;2.97;;;2.25;;
61206;SDS011;47070;49.212;8.084;2022-08-11T22:48:54;2.28;;;1.60;;
61206;SDS011;47070;49.212;8.084;2022-08-11T22:53:13;1.70;;;1.60;;
61206;SDS011;47070;49.212;8.084;2022-08-11T22:57:35;1.83;;;1.73;;
61206;SDS011;47070;49.212;8.084;2022-08-11T23:01:56;2.03;;;1.83;;
61206;SDS011;47070;49.212;8.084;2022-08-11T23:06:15;3.42;;;2.00;;
61206;SDS011;47070;49.212;8.084;2022-08-11T23:10:36;3.35;;;1.55;;
61206;SDS011;47070;49.212;8.084;2022-08-11T23:14:56;1.85;;;1.70;;
61206;SDS011;47070;49.212;8.084;2022-08-11T23:19:16;4.03;;;1.70;;
61206;SDS011;47070;49.212;8.084;2022-08-11T23:23:36;2.25;;;1.70;;
61206;SDS011;47070;49.212;8.084;2022-08-11T23:27:56;1.83;;;1.73;;
61206;SDS011;47070;49.212;8.084;2022-08-11T23:32:19;4.22;;;1.75;;
61206;SDS011;47070;49.212;8.084;2022-08-11T23:36:39;2.67;;;1.90;;
61206;SDS011;47070;49.212;8.084;2022-08-11T23:40:59;1.80;;;1.70;;
61206;SDS011;47070;49.212;8.084;2022-08-11T23:45:20;2.58;;;1.70;;
61206;SDS011;47070;49.212;8.084;2022-08-11T23:49:39;1.80;;;1.60;;
61206;SDS011;47070;49.212;8.084;2022-08-11T23:53:59;1.92;;;1.77;;
61206;SDS011;47070;49.212;8.084;2022-08-11T23:58:19;2.20;;;1.95;;
